Weather at Ulu Tomani Airport

Public forecast

Using degrees Celsius for public forecast. Weather courtesy of forecast.io.

Closest aviation weather report (METAR) to Ulu Tomani Airport

Closest report is Labuan Airport, 51.6 nm (95.5 km) NW.

2024/05/30 16:00 (retrieved 13 minutes ago)

WBKL 301600Z 00000KT 9999 FEW035 27/26 Q1011

Closest aviation forecast (TAF) to Ulu Tomani Airport

Closest forecast is Labuan Airport, 51.6 nm (95.5 km) NW.

2024/05/30 12:00 (retrieved 4 hours ago)

TAF WBKL 301100Z 3012/3112 10005KT 9999 FEW015